aviador You're here:

CYYT Decoded Metar

ST. JOHN'S in NL, CANADA
Report Time2018-01-18 01:00:00
UTC Time2018-01-18 01:53:30
Flight Rules vfr VFR
WindVRB at 02 kt
Visibility9999 m
Phenomena:N/A
Clouds:Broken 150 Hf
Overcast 160 Hf
Expected CloudBase > 400 ft AGL from Temp-Dew spread
Ceiling15,000 ft
Temp-4°C (ISA -18)
Dew Point-5°C (93% RH)
AAT-7.3°C
QNH1026 hPa
Density Alt-2,152 ft
Elevation459 ft
Report Wrong Elevation
Raw Report
CYYT 180100Z VRB02KT 15SM BKN150 OVC160 M04/M05 A3030 RMK AC6AC2
SLP272=

Extra information for CYYT:More info

Metar Taf Metar & Taf Last 4 Metars F.Rules Stats Wind Profile Meteogram Temp Stats Airport Information Weather charts Add Link Nearby VenuesMetar ALERT Operation Metar Decoded Social comments